DFACM EGJJ-EGJB

Flight info

Callsign DFACM
Flight time 0h 8m
Altitude 20000
Route DCT
Aircraft SF50/L-SDGRWY/L

Departure

Time 2026-05-07 17:41
Airport Jersey Airport (EGJJ)

Arrival

Time 2026-05-07 17:49
Airport Guernsey Airport (EGJB)
Time Latitude Longitude Altitude Speed Heading
2026-05-07 17:30 49.20332 -2.19277 278 ft 0 kts 22°
2026-05-07 17:36 49.20349 -2.19264 278 ft 8 kts 39°
2026-05-07 17:36 49.20411 -2.19260 278 ft 15 kts 264°
2026-05-07 17:36 49.20405 -2.19451 278 ft 20 kts 288°
2026-05-07 17:36 49.20440 -2.19645 278 ft 17 kts 285°
2026-05-07 17:37 49.20437 -2.19802 278 ft 13 kts 265°
2026-05-07 17:37 49.20449 -2.19917 278 ft 12 kts 343°
2026-05-07 17:37 49.20510 -2.19956 278 ft 13 kts 294°
2026-05-07 17:37 49.20543 -2.20075 278 ft 14 kts 342°
2026-05-07 17:38 49.20631 -2.20097 278 ft 10 kts 354°
2026-05-07 17:38 49.20637 -2.20098 278 ft 0 kts 352°
2026-05-07 17:38 49.20639 -2.20099 278 ft 3 kts 352°
2026-05-07 17:38 49.20711 -2.20106 277 ft 14 kts 353°
2026-05-07 17:39 49.20754 -2.20080 277 ft 0 kts 85°
2026-05-07 17:40 49.20755 -2.20067 277 ft 11 kts 84°
2026-05-07 17:40 49.20795 -2.19582 279 ft 78 kts 82°
2026-05-07 17:40 49.20888 -2.18528 434 ft 115 kts 83°
2026-05-07 17:40 49.21250 -2.17387 697 ft 136 kts 38°
2026-05-07 17:41 49.22220 -2.17438 815 ft 164 kts 324°
2026-05-07 17:41 49.23049 -2.18914 893 ft 197 kts 305°
2026-05-07 17:41 49.23771 -2.20764 997 ft 210 kts 300°
2026-05-07 17:41 49.24515 -2.22804 968 ft 229 kts 300°
2026-05-07 17:42 49.25328 -2.25007 886 ft 246 kts 300°
2026-05-07 17:42 49.26239 -2.27289 910 ft 253 kts 304°
2026-05-07 17:42 49.27203 -2.29555 906 ft 259 kts 303°
2026-05-07 17:42 49.28168 -2.31918 933 ft 263 kts 302°
2026-05-07 17:43 49.29130 -2.34292 953 ft 266 kts 302°
2026-05-07 17:43 49.30076 -2.36578 1052 ft 266 kts 304°
2026-05-07 17:43 49.31080 -2.38819 1097 ft 267 kts 305°
2026-05-07 17:43 49.32130 -2.41186 997 ft 271 kts 304°
2026-05-07 17:44 49.33191 -2.43586 826 ft 266 kts 305°
2026-05-07 17:44 49.34227 -2.45821 970 ft 246 kts 307°
2026-05-07 17:44 49.35253 -2.47893 897 ft 242 kts 309°
2026-05-07 17:44 49.36344 -2.49773 939 ft 231 kts 321°
2026-05-07 17:45 49.37635 -2.51150 998 ft 240 kts 332°
2026-05-07 17:45 49.39244 -2.52359 1014 ft 265 kts 339°
2026-05-07 17:45 49.40795 -2.53163 830 ft 214 kts 348°
2026-05-07 17:45 49.42044 -2.53648 1056 ft 163 kts 344°
2026-05-07 17:46 49.42987 -2.54561 1050 ft 187 kts 308°
2026-05-07 17:46 49.43265 -2.56702 1124 ft 228 kts 265°
2026-05-07 17:46 49.43038 -2.59333 1059 ft 271 kts 260°
2026-05-07 17:46 49.42592 -2.62270 1246 ft 285 kts 248°
2026-05-07 17:47 49.42020 -2.64736 1270 ft 225 kts 251°
2026-05-07 17:47 49.41660 -2.66904 1017 ft 189 kts 260°
2026-05-07 17:47 49.41902 -2.68617 990 ft 160 kts 320°
2026-05-07 17:47 49.42955 -2.68763 1182 ft 157 kts 41°
2026-05-07 17:48 49.43358 -2.67198 934 ft 177 kts 89°
2026-05-07 17:48 49.43349 -2.65290 760 ft 170 kts 88°
2026-05-07 17:48 49.43396 -2.63744 677 ft 122 kts 85°
2026-05-07 17:48 49.43424 -2.62666 510 ft 85 kts 85°
2026-05-07 17:49 49.43452 -2.61703 401 ft 97 kts 85°
2026-05-07 17:49 49.43476 -2.60713 319 ft 79 kts 83°
2026-05-07 17:49 49.43505 -2.60082 325 ft 40 kts 89°
2026-05-07 17:49 49.43474 -2.59864 330 ft 15 kts 154°
2026-05-07 17:50 49.43357 -2.59866 329 ft 14 kts 224°
2026-05-07 17:50 49.43274 -2.59927 329 ft 12 kts 178°
2026-05-07 17:50 49.43239 -2.59981 328 ft 3 kts 80°
2026-05-07 17:50 49.43239 -2.59980 328 ft 0 kts 77°
2026-05-07 17:54 49.43249 -2.59940 328 ft 9 kts 47°
2026-05-07 17:55 49.43321 -2.59931 329 ft 7 kts 359°
2026-05-07 17:55 49.43339 -2.59999 328 ft 18 kts 270°
2026-05-07 17:55 49.43334 -2.60228 324 ft 20 kts 266°
2026-05-07 17:55 49.43328 -2.60428 321 ft 18 kts 269°
2026-05-07 17:56 49.43326 -2.60602 318 ft 15 kts 275°
2026-05-07 17:56 49.43342 -2.60744 316 ft 12 kts 280°
2026-05-07 17:56 49.43357 -2.60864 314 ft 12 kts 281°
2026-05-07 17:56 49.43365 -2.61013 311 ft 16 kts 269°
2026-05-07 17:57 49.43358 -2.61202 308 ft 19 kts 268°
2026-05-07 17:57 49.43371 -2.61272 307 ft 8 kts 306°
2026-05-07 17:57 49.43429 -2.61357 306 ft 11 kts 346°
2026-05-07 17:57 49.43469 -2.61251 309 ft 27 kts 86°
2026-05-07 17:58 49.43484 -2.60691 317 ft 78 kts 88°
2026-05-07 17:58 49.43514 -2.59668 453 ft 104 kts 84°
2026-05-07 17:58 49.43563 -2.58597 858 ft 107 kts 86°
2026-05-07 17:58 49.43429 -2.57397 1082 ft 126 kts 111°
2026-05-07 17:59 49.43080 -2.56123 1389 ft 136 kts 115°
2026-05-07 17:59 49.42670 -2.54676 1386 ft 162 kts 114°
2026-05-07 17:59 49.41977 -2.53210 1454 ft 179 kts 138°
2026-05-07 17:59 49.40931 -2.52254 1619 ft 186 kts 153°
2026-05-07 18:00 49.39724 -2.51425 1712 ft 197 kts 154°
2026-05-07 18:00 49.38420 -2.50485 1510 ft 219 kts 153°
2026-05-07 18:00 49.36957 -2.49415 1159 ft 238 kts 153°
2026-05-07 18:00 49.35454 -2.48383 958 ft 239 kts 155°
2026-05-07 18:01 49.34056 -2.47084 878 ft 231 kts 137°
2026-05-07 18:01 49.33091 -2.45159 795 ft 225 kts 120°
2026-05-07 18:01 49.32268 -2.43106 634 ft 226 kts 120°
2026-05-07 18:01 49.31483 -2.41058 677 ft 218 kts 118°
2026-05-07 18:02 49.30094 -2.37192 974 ft 197 kts 118°
2026-05-07 18:02 49.29451 -2.35357 865 ft 199 kts 117°
2026-05-07 18:02 49.28824 -2.33495 895 ft 194 kts 116°
2026-05-07 18:03 49.28205 -2.31699 984 ft 189 kts 118°
2026-05-07 18:03 49.27581 -2.29928 951 ft 190 kts 117°
2026-05-07 18:03 49.26960 -2.28156 917 ft 189 kts 118°
2026-05-07 18:03 49.26190 -2.26542 912 ft 189 kts 135°
2026-05-07 18:04 49.25018 -2.25612 860 ft 192 kts 160°
2026-05-07 18:04 49.23690 -2.25352 872 ft 193 kts 177°
2026-05-07 18:04 49.22363 -2.25415 867 ft 191 kts 181°
2026-05-07 18:04 49.21066 -2.25511 915 ft 182 kts 171°
2026-05-07 18:05 49.20113 -2.24498 812 ft 173 kts 93°
2026-05-07 18:05 49.20427 -2.22896 681 ft 142 kts 66°
2026-05-07 18:05 49.20637 -2.21583 438 ft 118 kts 84°
2026-05-07 18:05 49.20714 -2.20515 318 ft 88 kts 81°
2026-05-07 18:06 49.20793 -2.19644 287 ft 83 kts 81°
2026-05-07 18:06 49.20867 -2.18614 413 ft 109 kts 82°
2026-05-07 18:06 49.20985 -2.17414 594 ft 126 kts 79°
2026-05-07 18:06 49.21085 -2.15988 700 ft 144 kts 93°
2026-05-07 18:07 49.20626 -2.14565 832 ft 165 kts 137°
2026-05-07 18:07 49.19477 -2.13969 793 ft 191 kts 176°
2026-05-07 18:07 49.18128 -2.14112 912 ft 198 kts 184°
2026-05-07 18:07 49.16737 -2.14402 1007 ft 205 kts 187°
2026-05-07 18:08 49.15297 -2.14822 954 ft 216 kts 192°
2026-05-07 18:08 49.14000 -2.16049 987 ft 227 kts 225°
2026-05-07 18:08 49.13316 -2.18197 982 ft 235 kts 261°
2026-05-07 18:08 49.13474 -2.20716 888 ft 243 kts 282°
2026-05-07 18:09 49.13886 -2.23217 922 ft 244 kts 287°
2026-05-07 18:09 49.14456 -2.25678 943 ft 245 kts 293°
2026-05-07 18:09 49.15395 -2.27821 975 ft 244 kts 317°
2026-05-07 18:09 49.16793 -2.29266 1008 ft 243 kts 337°
2026-05-07 18:10 49.18407 -2.29820 912 ft 231 kts
2026-05-07 18:10 49.19899 -2.29213 807 ft 218 kts 43°
2026-05-07 18:10 49.20446 -2.27369 911 ft 186 kts 87°
2026-05-07 18:10 49.20415 -2.25466 865 ft 167 kts 94°
2026-05-07 18:11 49.20430 -2.23908 716 ft 126 kts 81°
2026-05-07 18:11 49.20506 -2.23135 682 ft 99 kts 81°
2026-05-07 18:11 49.20611 -2.21766 478 ft 96 kts 83°
2026-05-07 18:11 49.20686 -2.20788 355 ft 91 kts 80°
2026-05-07 18:12 49.20771 -2.19852 280 ft 79 kts 81°
2026-05-07 18:12 49.20842 -2.19026 290 ft 91 kts 81°
2026-05-07 18:12 49.20920 -2.17971 436 ft 112 kts 84°
2026-05-07 18:12 49.20999 -2.16707 755 ft 134 kts 87°
2026-05-07 18:13 49.20614 -2.15334 905 ft 169 kts 139°
2026-05-07 18:13 49.19367 -2.14828 972 ft 204 kts 170°
2026-05-07 18:13 49.17840 -2.14565 993 ft 238 kts 172°
2026-05-07 18:13 49.16105 -2.14409 983 ft 255 kts 176°
2026-05-07 18:14 49.14335 -2.14689 963 ft 263 kts 197°
2026-05-07 18:14 49.12872 -2.16351 984 ft 270 kts 232°
2026-05-07 18:14 49.12357 -2.19086 973 ft 274 kts 269°
2026-05-07 18:14 49.12504 -2.21922 917 ft 262 kts 277°
2026-05-07 18:15 49.12706 -2.24635 797 ft 254 kts 276°
2026-05-07 18:15 49.12902 -2.27261 793 ft 245 kts 276°
2026-05-07 18:15 49.13087 -2.29794 908 ft 234 kts 277°
2026-05-07 18:15 49.13359 -2.32121 1075 ft 221 kts 287°
2026-05-07 18:16 49.14155 -2.34109 958 ft 222 kts 318°
2026-05-07 18:16 49.15548 -2.35049 766 ft 223 kts 356°
2026-05-07 18:16 49.16953 -2.34307 759 ft 210 kts 35°
2026-05-07 18:16 49.18361 -2.33581 575 ft 214 kts 13°
2026-05-07 18:17 49.19453 -2.32466 620 ft 195 kts 69°
2026-05-07 18:17 49.19822 -2.30543 570 ft 178 kts 81°
2026-05-07 18:17 49.20032 -2.28773 682 ft 158 kts 80°
2026-05-07 18:17 49.20163 -2.27264 817 ft 142 kts 83°
2026-05-07 18:18 49.20274 -2.25778 796 ft 138 kts 84°
2026-05-07 18:18 49.20409 -2.24358 688 ft 136 kts 79°
2026-05-07 18:18 49.20524 -2.22986 685 ft 130 kts 82°
2026-05-07 18:18 49.20623 -2.21692 462 ft 106 kts 81°
2026-05-07 18:19 49.20697 -2.20704 341 ft 92 kts 81°
2026-05-07 18:19 49.20781 -2.19728 280 ft 83 kts 81°
2026-05-07 18:19 49.20855 -2.18903 277 ft 91 kts 82°
2026-05-07 18:19 49.20942 -2.17782 461 ft 114 kts 82°
2026-05-07 18:20 49.21017 -2.16501 648 ft 131 kts 89°
2026-05-07 18:20 49.20671 -2.15165 803 ft 150 kts 135°
2026-05-07 18:20 49.19595 -2.14707 663 ft 181 kts 178°
2026-05-07 18:20 49.18393 -2.14866 1032 ft 171 kts 186°
2026-05-07 18:21 49.17168 -2.15187 1025 ft 184 kts 189°
2026-05-07 18:21 49.16327 -2.15454 973 ft 190 kts 190°
2026-05-07 18:21 49.14973 -2.16206 701 ft 232 kts 210°
2026-05-07 18:21 49.13926 -2.18220 689 ft 256 kts 253°
2026-05-07 18:22 49.13892 -2.20652 662 ft 210 kts 280°
2026-05-07 18:22 49.14097 -2.22005 707 ft 187 kts 288°
2026-05-07 18:22 49.14961 -2.24643 654 ft 148 kts 310°
2026-05-07 18:22 49.15621 -2.25802 584 ft 142 kts 313°
2026-05-07 18:23 49.16081 -2.26531 528 ft 141 kts 324°
2026-05-07 18:23 49.16950 -2.27202 415 ft 142 kts 347°
2026-05-07 18:23 49.17904 -2.27402 464 ft 137 kts
2026-05-07 18:23 49.18823 -2.27340 483 ft 128 kts
2026-05-07 18:24 49.19709 -2.27290 630 ft 132 kts
2026-05-07 18:24 49.20524 -2.26880 809 ft 132 kts 85°
2026-05-07 18:24 49.20424 -2.25409 716 ft 138 kts 102°
2026-05-07 18:24 49.20382 -2.24033 638 ft 122 kts 78°
2026-05-07 18:25 49.20530 -2.22831 615 ft 111 kts 80°
2026-05-07 18:25 49.20621 -2.21664 479 ft 104 kts 83°
2026-05-07 18:25 49.20694 -2.20718 326 ft 78 kts 82°
2026-05-07 18:25 49.20769 -2.19934 279 ft 68 kts 82°
2026-05-07 18:26 49.20846 -2.18980 305 ft 111 kts 81°
2026-05-07 18:26 49.20947 -2.17757 579 ft 121 kts 81°
2026-05-07 18:26 49.21019 -2.16490 976 ft 117 kts 89°
2026-05-07 18:26 49.21052 -2.15254 1357 ft 117 kts 89°
2026-05-07 18:27 49.21074 -2.13964 1636 ft 126 kts 90°
2026-05-07 18:27 49.21088 -2.12579 1844 ft 136 kts 90°
2026-05-07 18:27 49.21137 -2.11104 2005 ft 147 kts 90°
2026-05-07 18:27 49.21276 -2.09463 1999 ft 164 kts 79°
2026-05-07 18:28 49.21554 -2.07717 2031 ft 180 kts 81°
2026-05-07 18:28 49.21821 -2.05703 1924 ft 206 kts 82°
2026-05-07 18:28 49.21956 -2.03442 1928 ft 219 kts 97°
2026-05-07 18:28 49.21456 -2.01221 2019 ft 228 kts 122°
2026-05-07 18:29 49.20332 -1.99469 2051 ft 237 kts 146°
2026-05-07 18:29 49.18769 -1.98562 2063 ft 246 kts 169°
2026-05-07 18:29 49.17017 -1.98644 1919 ft 259 kts 191°
2026-05-07 18:29 49.15329 -1.99754 1670 ft 273 kts 212°
2026-05-07 18:30 49.14101 -2.01762 2152 ft 241 kts 235°
2026-05-07 18:30 49.13524 -2.04080 1989 ft 236 kts 261°
2026-05-07 18:30 49.13757 -2.06455 1887 ft 228 kts 290°
2026-05-07 18:30 49.14443 -2.08566 1819 ft 216 kts 297°
2026-05-07 18:31 49.15106 -2.10526 1881 ft 199 kts 295°
2026-05-07 18:31 49.15686 -2.12391 1881 ft 190 kts 293°
2026-05-07 18:31 49.16198 -2.14190 1951 ft 179 kts 291°
2026-05-07 18:31 49.16657 -2.15950 1936 ft 177 kts 285°
2026-05-07 18:32 49.16966 -2.17802 1797 ft 182 kts 280°
2026-05-07 18:32 49.17182 -2.19699 1695 ft 182 kts 277°
2026-05-07 18:32 49.17423 -2.21587 1675 ft 180 kts 280°
2026-05-07 18:32 49.17805 -2.23418 1530 ft 188 kts 297°
2026-05-07 18:33 49.18552 -2.24926 1743 ft 173 kts 320°
2026-05-07 18:33 49.19613 -2.25765 1705 ft 173 kts 349°
2026-05-07 18:33 49.20763 -2.25891 1807 ft 164 kts
2026-05-07 18:33 49.21935 -2.25783 1715 ft 168 kts
2026-05-07 18:34 49.23079 -2.25585 1769 ft 163 kts 12°
2026-05-07 18:34 49.24179 -2.25185 1811 ft 159 kts 23°
2026-05-07 18:34 49.25180 -2.24518 1810 ft 157 kts 31°
2026-05-07 18:34 49.25945 -2.23413 1826 ft 148 kts 68°
2026-05-07 18:35 49.26156 -2.21958 1889 ft 138 kts 91°
2026-05-07 18:35 49.26092 -2.20510 1893 ft 140 kts 100°
2026-05-07 18:35 49.25946 -2.19012 1845 ft 143 kts 100°
2026-05-07 18:35 49.25878 -2.17466 1777 ft 148 kts 96°
2026-05-07 18:36 49.25795 -2.15899 1745 ft 150 kts 98°
2026-05-07 18:36 49.25617 -2.14304 1695 ft 153 kts 107°
2026-05-07 18:36 49.25324 -2.12758 1688 ft 149 kts 108°
2026-05-07 18:36 49.25067 -2.11182 1565 ft 154 kts 105°
2026-05-07 18:37 49.24838 -2.09619 1562 ft 151 kts 105°
2026-05-07 18:37 49.24568 -2.08088 1607 ft 148 kts 109°
2026-05-07 18:37 49.24229 -2.06613 1666 ft 145 kts 112°
2026-05-07 18:37 49.23788 -2.05245 1721 ft 142 kts 121°
2026-05-07 18:38 49.23280 -2.03979 1797 ft 139 kts 124°
2026-05-07 18:38 49.22660 -2.02859 1874 ft 138 kts 140°
2026-05-07 18:38 49.21860 -2.02070 1947 ft 137 kts 153°
2026-05-07 18:38 49.20947 -2.01591 1989 ft 139 kts 165°
2026-05-07 18:39 49.19993 -2.01395 2035 ft 139 kts 174°
2026-05-07 18:39 49.18990 -2.01637 1879 ft 152 kts 191°
2026-05-07 18:39 49.17946 -2.02065 1813 ft 157 kts 192°
2026-05-07 18:39 49.16863 -2.02291 1790 ft 156 kts 178°
2026-05-07 18:40 49.15813 -2.02226 1834 ft 151 kts 175°
2026-05-07 18:40 49.14744 -2.02499 1638 ft 166 kts 200°
2026-05-07 18:40 49.13888 -2.03685 1567 ft 172 kts 241°
2026-05-07 18:40 49.13892 -2.05454 1622 ft 172 kts 288°
2026-05-07 18:41 49.14401 -2.07106 1617 ft 170 kts 296°
2026-05-07 18:41 49.14972 -2.08673 1638 ft 167 kts 300°
2026-05-07 18:41 49.15486 -2.10204 1729 ft 159 kts 290°
2026-05-07 18:41 49.15841 -2.11848 1567 ft 170 kts 284°
2026-05-07 18:42 49.16166 -2.13657 1275 ft 184 kts 286°
2026-05-07 18:42 49.16540 -2.15529 1115 ft 187 kts 288°
2026-05-07 18:42 49.16929 -2.17385 1157 ft 180 kts 287°
2026-05-07 18:42 49.17186 -2.19263 1076 ft 181 kts 277°
2026-05-07 18:43 49.17360 -2.21169 1006 ft 180 kts 277°
2026-05-07 18:43 49.17485 -2.23028 972 ft 173 kts 272°
2026-05-07 18:43 49.17457 -2.24849 885 ft 169 kts 266°
2026-05-07 18:43 49.17424 -2.26610 837 ft 160 kts 279°
2026-05-07 18:44 49.17887 -2.28041 763 ft 149 kts 320°
2026-05-07 18:44 49.18712 -2.28674 801 ft 128 kts
2026-05-07 18:44 49.19513 -2.28219 689 ft 122 kts 38°
2026-05-07 18:44 49.20046 -2.27478 706 ft 89 kts 59°
2026-05-07 18:45 49.20286 -2.26617 603 ft 91 kts 76°
2026-05-07 18:45 49.20376 -2.25652 621 ft 93 kts 86°
2026-05-07 18:45 49.20417 -2.24680 655 ft 91 kts 85°
2026-05-07 18:45 49.20482 -2.23700 664 ft 96 kts 83°
2026-05-07 18:46 49.20551 -2.22662 598 ft 101 kts 82°
2026-05-07 18:46 49.20632 -2.21587 455 ft 101 kts 82°
2026-05-07 18:46 49.20710 -2.20584 311 ft 87 kts 82°
2026-05-07 18:46 49.20775 -2.19839 279 ft 38 kts 83°
2026-05-07 18:47 49.20763 -2.19643 278 ft 10 kts 138°
2026-05-07 18:47 49.20698 -2.19620 278 ft 9 kts 191°
2026-05-07 18:47 49.20662 -2.19649 278 ft 6 kts 214°
2026-05-07 18:47 49.20624 -2.19691 278 ft 7 kts 229°
2026-05-07 18:48 49.20611 -2.19769 278 ft 9 kts 263°
2026-05-07 18:48 49.20604 -2.19879 278 ft 12 kts 260°
2026-05-07 18:48 49.20533 -2.19931 278 ft 15 kts 175°
2026-05-07 18:48 49.20445 -2.19915 278 ft 10 kts 152°
2026-05-07 18:49 49.20433 -2.19842 278 ft 5 kts 84°
2026-05-07 18:49 49.20437 -2.19778 278 ft 8 kts 83°
2026-05-07 18:49 49.20445 -2.19670 278 ft 12 kts 94°
2026-05-07 18:49 49.20419 -2.19524 278 ft 16 kts 103°
2026-05-07 18:50 49.20401 -2.19362 278 ft 14 kts 78°
2026-05-07 18:50 49.20382 -2.19300 278 ft 9 kts 179°
2026-05-07 18:50 49.20351 -2.19259 278 ft 6 kts 93°
2026-05-07 18:50 49.20350 -2.19249 278 ft 0 kts 92°